Roedersville, Pennsylvania
Current Conditions -  °F | °C
As of 10:10 AM on Wednesday 26 Nov 2014 (Local Time) from KMUI Reporting Station
Light Snow Light Snow  
Wind Chill: 32°   Ceiling: 700
Heat Index: 32°   Visibility: 0.75mi
Dew Point: 32°   Wind: 0mph
Humidity: 100%   Direction: NA
Pressure: 30.11"   Gusts: NA
Location:  40.5592°N, 76.3347°W
Report Text: KMUI 261510Z AUTO 00000KT 3/4SM -SN BR VV007 00/00 A3011 RMK AO2 CIG 005V007 RVRNO $
Loading
Personal Weather Stations






























Interactive Weather Map New forecast layout! Learn more

10-Day Weather Forecast

Advertisements
Track Severe Weather on mobile